createdAt,value
2019-02-16T00:00:00.293Z,0
2019-02-16T00:30:00.220Z,2
2019-02-16T01:00:00.285Z,0.67
2019-02-16T01:30:00.322Z,2.67
2019-02-16T02:00:00.334Z,2
2019-02-16T02:30:00.348Z,2.67
2019-02-16T03:00:00.342Z,4
2019-02-16T03:30:00.513Z,1.33
2019-02-16T04:00:00.321Z,4
2019-02-16T04:30:05.207Z,4.67
2019-02-16T05:00:00.429Z,2.67
2019-02-16T05:30:00.313Z,2
2019-02-16T06:00:00.354Z,0.67
2019-02-16T06:30:00.328Z,0
2019-02-16T07:00:00.343Z,0
2019-02-16T07:30:00.193Z,0.67
2019-02-16T08:00:00.404Z,0
2019-02-16T08:30:05.136Z,1.33
2019-02-16T09:00:00.289Z,5.34
2019-02-16T09:30:00.304Z,5.34
2019-02-16T10:00:00.250Z,4.67
2019-02-16T10:30:00.332Z,4
2019-02-16T11:00:00.245Z,3.33
2019-02-16T11:30:00.273Z,4.67
2019-02-16T12:00:00.240Z,4.67
2019-02-16T12:30:00.281Z,3.33
2019-02-16T13:00:00.317Z,4.67
2019-02-16T13:30:00.146Z,4.67
2019-02-16T14:00:00.289Z,3.33
2019-02-16T14:30:00.274Z,1.33
2019-02-16T15:00:00.283Z,4
2019-02-16T15:30:00.318Z,5.34
2019-02-16T16:00:00.239Z,2
2019-02-16T16:30:00.325Z,3.33
2019-02-16T17:00:00.329Z,0.67
2019-02-16T17:30:00.920Z,1.33
2019-02-16T18:00:00.317Z,2
2019-02-16T18:30:05.193Z,2
2019-02-16T19:00:02.733Z,0.67
2019-02-16T19:30:00.390Z,0
2019-02-16T20:00:02.442Z,0.67
2019-02-16T20:30:00.255Z,1.33
2019-02-16T21:00:00.332Z,0
2019-02-16T21:30:00.389Z,0
2019-02-16T22:00:00.350Z,0.67
2019-02-16T22:30:00.235Z,1.33
2019-02-16T23:00:00.424Z,0
2019-02-16T23:30:00.372Z,0
